Terminal Aerodrome Forecast
Issued by NWS

Home | Current Version | Previous Version | Text Only | Print | Product List | Glossary On
Versions: 1 2 3 4 5 6 7 8 9 10 11 12 13 14 15 16 17 18 19 20
013
FTUS43 KAPX 221725 AAC
TAFMBL
TAF AMD
KMBL 221725Z 2217/2318 22009KT P6SM BKN060
     FM222000 23009KT P6SM VCTS BKN050CB
      TEMPO 2223/2303 4SM -TSRA BKN025 OVC040CB
     FM230300 35004KT 4SM SHRA BR VCTS BKN020CB OVC035
     FM230600 33004KT 3SM BR VCTS OVC015CB
     FM230800 33004KT 3SM BR VCSH OVC009
     FM231200 28004KT P6SM BKN008
     FM231400 27006KT P6SM SCT020
     FM231600 26007KT P6SM SCT250=

USA.gov is the U.S. government's official web portal to all federal, state and local government web resources and services.